createdAt,value
2018-01-26T00:01:01.427Z,7.17
2018-01-26T00:03:27.657Z,7.40
2018-01-26T00:05:53.873Z,7.83
2018-01-26T00:08:20.093Z,7.03
2018-01-26T00:10:46.370Z,7.67
2018-01-26T00:13:12.561Z,8.97
2018-01-26T00:15:38.770Z,7.30
2018-01-26T00:18:05.026Z,7.50
2018-01-26T00:20:31.208Z,7.83
2018-01-26T00:22:58.132Z,8.40
2018-01-26T00:25:24.312Z,7.20
2018-01-26T00:27:50.572Z,8.03
2018-01-26T00:30:17.521Z,7.90
2018-01-26T00:32:44.442Z,8.10
2018-01-26T00:35:10.710Z,7.60
2018-01-26T00:37:37.643Z,7.77
2018-01-26T00:40:03.869Z,7.87
2018-01-26T00:42:30.004Z,8.20
2018-01-26T00:44:56.223Z,7.83
2018-01-26T00:47:22.388Z,7.43
2018-01-26T00:49:49.363Z,7.20
2018-01-26T00:52:15.506Z,7.27
2018-01-26T00:54:41.726Z,7.97
2018-01-26T00:57:07.949Z,7.90
2018-01-26T00:59:34.149Z,7.40
2018-01-26T01:02:00.372Z,8.20
2018-01-26T01:04:26.525Z,8.43
2018-01-26T01:06:52.717Z,7.20
2018-01-26T01:09:19.654Z,7.90
2018-01-26T01:11:46.583Z,6.63
2018-01-26T01:14:12.820Z,7.80
2018-01-26T01:16:39.801Z,7.40
2018-01-26T01:19:05.981Z,7.43
2018-01-26T01:21:32.938Z,8.07
2018-01-26T01:23:59.910Z,6.57
2018-01-26T01:26:26.098Z,7.57
2018-01-26T01:28:52.311Z,7.53
2018-01-26T01:31:18.585Z,7.13
2018-01-26T01:33:45.567Z,8.03
2018-01-26T01:36:11.790Z,7.90
2018-01-26T01:38:37.994Z,7.37
2018-01-26T01:41:04.936Z,7.50
2018-01-26T01:43:31.868Z,7.50
2018-01-26T01:45:58.776Z,7.63
2018-01-26T01:48:24.978Z,7.53
2018-01-26T01:50:51.106Z,7.00
2018-01-26T01:53:17.341Z,8.50
2018-01-26T01:55:43.593Z,7.47
2018-01-26T01:58:09.806Z,7.00
2018-01-26T02:00:36.030Z,7.97
2018-01-26T02:03:02.181Z,7.43
2018-01-26T02:05:28.358Z,7.93
2018-01-26T02:07:54.558Z,8.13
2018-01-26T02:10:21.530Z,7.50
2018-01-26T02:12:47.702Z,7.10
2018-01-26T02:15:13.924Z,6.80
2018-01-26T02:17:40.129Z,7.17
2018-01-26T02:20:06.342Z,7.53
2018-01-26T02:22:32.572Z,7.10
2018-01-26T02:24:58.845Z,6.77
2018-01-26T02:27:25.784Z,6.47
2018-01-26T02:29:52.050Z,7.10
2018-01-26T02:32:18.967Z,7.60
2018-01-26T02:34:45.191Z,7.77
2018-01-26T02:37:11.347Z,6.57
2018-01-26T02:39:38.258Z,6.67
2018-01-26T02:42:04.471Z,6.67
2018-01-26T02:44:30.643Z,7.30
2018-01-26T02:46:57.585Z,6.77
2018-01-26T02:49:24.558Z,6.23
2018-01-26T02:51:50.759Z,6.80
2018-01-26T02:54:16.902Z,6.93
2018-01-26T02:56:43.785Z,7.97
2018-01-26T02:59:10.030Z,7.27
2018-01-26T03:01:36.208Z,8.97
2018-01-26T03:04:03.202Z,7.83
2018-01-26T03:06:29.383Z,7.03
2018-01-26T03:08:56.275Z,6.70
2018-01-26T03:11:22.466Z,7.33
2018-01-26T03:13:48.667Z,6.47
2018-01-26T03:16:15.594Z,6.90
2018-01-26T03:18:42.534Z,5.77
2018-01-26T03:21:09.525Z,6.60
2018-01-26T03:23:35.741Z,6.70
2018-01-26T03:26:01.913Z,6.93
2018-01-26T03:28:28.152Z,7.50
2018-01-26T03:30:54.428Z,6.53
2018-01-26T03:33:21.367Z,7.17
2018-01-26T03:35:48.328Z,6.67
2018-01-26T03:38:14.565Z,7.20
2018-01-26T03:40:40.755Z,7.10
2018-01-26T03:43:06.969Z,6.80
2018-01-26T03:45:33.173Z,7.10
2018-01-26T03:47:59.352Z,6.90
2018-01-26T03:50:26.307Z,7.40
2018-01-26T03:52:52.566Z,7.10
2018-01-26T03:55:18.754Z,7.73
2018-01-26T03:57:45.673Z,8.43
2018-01-26T04:00:11.858Z,6.90
2018-01-26T04:02:38.062Z,7.10
2018-01-26T04:05:04.330Z,7.87
2018-01-26T04:07:30.521Z,7.70
2018-01-26T04:09:56.744Z,7.27
2018-01-26T04:12:23.700Z,8.10
2018-01-26T04:14:49.859Z,7.67
2018-01-26T04:17:16.079Z,7.53
2018-01-26T04:19:42.334Z,7.20
2018-01-26T04:22:09.289Z,6.93
2018-01-26T04:24:36.239Z,7.77
2018-01-26T04:27:02.470Z,8.20
2018-01-26T04:29:29.388Z,8.20
2018-01-26T04:31:55.568Z,7.93
2018-01-26T04:34:21.784Z,7.20
2018-01-26T04:36:48.775Z,8.70
2018-01-26T04:39:14.976Z,9.67
2018-01-26T04:41:41.228Z,9.50
2018-01-26T04:44:07.466Z,8.20
2018-01-26T04:46:33.697Z,7.47
2018-01-26T04:48:59.935Z,8.07
2018-01-26T04:51:26.101Z,7.60
2018-01-26T04:53:52.320Z,7.70
2018-01-26T04:56:19.299Z,7.47
2018-01-26T04:58:45.477Z,7.30
2018-01-26T05:01:11.630Z,7.60
2018-01-26T05:03:38.620Z,7.87
2018-01-26T05:06:04.827Z,7.97
2018-01-26T05:08:31.025Z,8.37
2018-01-26T05:10:57.972Z,8.70
2018-01-26T05:13:24.882Z,8.53
2018-01-26T05:15:51.135Z,8.63
2018-01-26T05:18:18.135Z,8.60
2018-01-26T05:20:44.326Z,7.23
2018-01-26T05:23:11.247Z,7.73
2018-01-26T05:25:37.467Z,7.87
2018-01-26T05:28:03.686Z,7.03
2018-01-26T05:30:29.874Z,8.50
2018-01-26T05:32:56.107Z,8.33
2018-01-26T05:35:22.304Z,7.20
2018-01-26T05:37:49.202Z,7.10
2018-01-26T05:40:15.464Z,8.13
2018-01-26T05:42:42.361Z,7.00
2018-01-26T05:45:08.530Z,7.80
2018-01-26T05:47:35.446Z,7.30
2018-01-26T05:50:01.662Z,8.30
2018-01-26T05:52:28.157Z,7.93
2018-01-26T05:54:55.115Z,8.40
2018-01-26T05:57:21.316Z,7.50
2018-01-26T05:59:48.266Z,8.07
2018-01-26T06:02:15.226Z,7.20
2018-01-26T06:04:42.203Z,7.93
2018-01-26T06:07:09.457Z,8.00
2018-01-26T06:09:35.676Z,7.47
2018-01-26T06:12:01.902Z,7.90
2018-01-26T06:14:28.107Z,7.67
2018-01-26T06:16:55.078Z,6.83
2018-01-26T06:19:21.317Z,8.07
2018-01-26T06:21:47.604Z,7.23
2018-01-26T06:24:14.599Z,7.03
2018-01-26T06:26:40.796Z,6.93
2018-01-26T06:29:07.337Z,6.80
2018-01-26T06:31:33.658Z,7.47
2018-01-26T06:33:59.875Z,6.23
2018-01-26T06:36:26.808Z,6.47
2018-01-26T06:38:53.790Z,6.80
2018-01-26T06:41:19.972Z,6.97
2018-01-26T06:43:46.228Z,7.20
2018-01-26T06:46:12.514Z,7.70
2018-01-26T06:48:38.791Z,8.23
2018-01-26T06:51:05.055Z,7.90
2018-01-26T06:53:31.272Z,10.03
2018-01-26T06:55:57.462Z,8.03
2018-01-26T06:58:24.422Z,10.10
2018-01-26T07:00:50.645Z,9.07
2018-01-26T07:03:16.846Z,9.70
2018-01-26T07:05:43.126Z,13.47
2018-01-26T07:08:09.343Z,12.97
2018-01-26T07:10:35.569Z,12.30
2018-01-26T07:13:01.805Z,12.00
2018-01-26T07:15:27.996Z,11.87
2018-01-26T07:17:54.180Z,13.30
2018-01-26T07:20:20.407Z,11.80
2018-01-26T07:22:46.573Z,11.50
2018-01-26T07:25:12.795Z,9.60
2018-01-26T07:27:39.754Z,10.23
2018-01-26T07:30:06.649Z,10.30
2018-01-26T07:32:32.869Z,10.37
2018-01-26T07:34:59.131Z,10.10
2018-01-26T07:37:26.032Z,9.67
2018-01-26T07:39:52.271Z,9.77
2018-01-26T07:42:18.488Z,9.70
2018-01-26T07:44:44.660Z,9.90
2018-01-26T07:47:10.819Z,9.60
2018-01-26T07:49:37.826Z,9.03
2018-01-26T07:52:04.081Z,8.83
2018-01-26T07:54:31.050Z,8.40
2018-01-26T07:56:57.993Z,10.50
2018-01-26T07:59:24.238Z,8.87
2018-01-26T08:01:50.423Z,8.80
2018-01-26T08:04:17.405Z,8.83
2018-01-26T08:06:43.647Z,8.80
2018-01-26T08:09:09.863Z,8.93
2018-01-26T08:11:36.160Z,9.30
2018-01-26T08:14:03.261Z,10.07
2018-01-26T08:16:29.467Z,9.57
2018-01-26T08:18:55.770Z,10.60
2018-01-26T08:21:22.720Z,9.83
2018-01-26T08:23:49.724Z,9.60
2018-01-26T08:26:15.959Z,10.23
2018-01-26T08:28:42.152Z,8.77
2018-01-26T08:31:08.811Z,10.23
2018-01-26T08:33:35.032Z,9.70
2018-01-26T08:36:01.203Z,10.63
2018-01-26T08:38:27.359Z,9.87
2018-01-26T08:40:54.267Z,9.30
2018-01-26T08:43:21.211Z,9.50
2018-01-26T08:45:47.443Z,10.00
2018-01-26T08:48:14.463Z,10.43
2018-01-26T08:50:40.647Z,9.77
2018-01-26T08:53:07.606Z,9.23
2018-01-26T08:55:34.572Z,9.27
2018-01-26T08:58:00.818Z,10.50
2018-01-26T09:00:27.027Z,9.53
2018-01-26T09:02:53.299Z,10.07
2018-01-26T09:05:19.522Z,9.80
2018-01-26T09:07:45.707Z,9.20
2018-01-26T09:10:11.945Z,9.87
2018-01-26T09:12:38.157Z,10.33
2018-01-26T09:15:04.395Z,9.80
2018-01-26T09:17:30.573Z,9.53
2018-01-26T09:19:57.576Z,9.50
2018-01-26T09:22:23.827Z,9.93
2018-01-26T09:24:50.083Z,10.80
2018-01-26T09:27:17.100Z,10.33
2018-01-26T09:29:44.073Z,9.90
2018-01-26T09:32:11.084Z,11.17
2018-01-26T09:34:37.286Z,9.37
2018-01-26T09:37:03.475Z,9.90
2018-01-26T09:39:30.411Z,10.27
2018-01-26T09:41:56.667Z,11.17
2018-01-26T09:44:22.877Z,10.90
2018-01-26T09:46:49.855Z,11.57
2018-01-26T09:49:16.056Z,11.70
2018-01-26T09:51:43.027Z,10.47
2018-01-26T09:54:09.247Z,14.43
2018-01-26T09:56:35.417Z,11.97
2018-01-26T09:59:01.634Z,10.60
2018-01-26T10:01:27.805Z,10.37
2018-01-26T10:03:54.709Z,9.90
2018-01-26T10:06:20.951Z,11.23
2018-01-26T10:08:47.869Z,10.93
2018-01-26T10:11:14.087Z,10.07
2018-01-26T10:13:40.331Z,9.53
2018-01-26T10:16:06.531Z,10.10
2018-01-26T10:18:32.735Z,9.70
2018-01-26T10:20:58.894Z,9.00
2018-01-26T10:23:25.153Z,10.23
2018-01-26T10:25:51.315Z,10.10
2018-01-26T10:28:17.474Z,10.67
2018-01-26T10:30:43.704Z,10.50
2018-01-26T10:33:09.872Z,11.80
2018-01-26T10:35:36.150Z,11.90
2018-01-26T10:38:02.404Z,10.83
2018-01-26T10:40:28.686Z,11.27
2018-01-26T10:45:16.593Z,9.90
2018-01-26T10:47:42.788Z,10.17
2018-01-26T10:50:08.985Z,10.50
2018-01-26T10:52:35.253Z,9.37
2018-01-26T10:55:01.414Z,9.67
2018-01-26T10:57:27.644Z,9.70
2018-01-26T10:59:53.820Z,9.97
2018-01-26T11:02:20.718Z,9.90
2018-01-26T11:04:46.935Z,10.40
2018-01-26T11:07:13.119Z,9.80
2018-01-26T11:09:40.098Z,10.20
2018-01-26T11:12:06.282Z,11.40
2018-01-26T11:14:33.251Z,10.10
2018-01-26T11:16:59.391Z,9.57
2018-01-26T11:19:25.604Z,10.27
2018-01-26T11:21:51.795Z,9.50
2018-01-26T11:24:18.029Z,9.50
2018-01-26T11:26:44.961Z,9.77
2018-01-26T11:29:11.082Z,9.60
2018-01-26T11:31:37.238Z,9.57
2018-01-26T11:34:04.347Z,9.30
2018-01-26T11:36:30.618Z,8.90
2018-01-26T11:38:57.531Z,10.10
2018-01-26T11:41:23.710Z,8.80
2018-01-26T11:43:49.971Z,9.40
2018-01-26T11:46:16.137Z,8.30
2018-01-26T11:48:43.078Z,10.00
2018-01-26T11:51:10.069Z,9.20
2018-01-26T11:53:36.228Z,9.90
2018-01-26T11:56:02.441Z,9.93
2018-01-26T11:58:28.632Z,9.83
2018-01-26T12:00:54.827Z,9.90
2018-01-26T12:03:21.049Z,9.63
2018-01-26T12:05:47.302Z,9.90
2018-01-26T12:08:14.875Z,10.00
2018-01-26T12:10:41.133Z,9.00
2018-01-26T12:13:07.346Z,9.73
2018-01-26T12:15:33.528Z,9.77
2018-01-26T12:17:59.684Z,9.97
2018-01-26T12:20:26.710Z,9.23
2018-01-26T12:22:52.872Z,9.83
2018-01-26T12:25:19.137Z,10.47
2018-01-26T12:27:45.423Z,8.90
2018-01-26T12:30:11.608Z,9.27
2018-01-26T12:32:37.772Z,10.73
2018-01-26T12:35:04.711Z,9.50
2018-01-26T12:37:31.695Z,9.10
2018-01-26T12:39:57.900Z,9.43
2018-01-26T12:42:24.071Z,8.93
2018-01-26T12:44:50.291Z,9.00
2018-01-26T12:47:16.524Z,9.40
2018-01-26T12:49:42.738Z,9.60
2018-01-26T12:52:09.070Z,10.47
2018-01-26T12:54:35.260Z,10.30
2018-01-26T12:57:02.225Z,9.03
2018-01-26T12:59:28.455Z,9.37
2018-01-26T13:01:54.662Z,9.70
2018-01-26T13:04:20.795Z,9.80
2018-01-26T13:06:47.031Z,8.93
2018-01-26T13:09:13.213Z,9.00
2018-01-26T13:11:39.360Z,9.40
2018-01-26T13:14:05.550Z,9.30
2018-01-26T13:16:31.719Z,9.37
2018-01-26T13:18:58.723Z,8.70
2018-01-26T13:21:24.945Z,8.77
2018-01-26T13:23:51.089Z,8.87
2018-01-26T13:26:17.286Z,8.30
2018-01-26T13:28:43.526Z,6.63
2018-01-26T13:31:09.790Z,7.13
2018-01-26T13:33:36.779Z,6.20
2018-01-26T13:36:03.004Z,6.30
2018-01-26T13:38:29.176Z,5.63
2018-01-26T13:40:55.412Z,7.00
2018-01-26T13:43:21.599Z,7.73
2018-01-26T13:45:47.826Z,9.07
2018-01-26T13:48:14.019Z,9.70
2018-01-26T13:50:40.986Z,10.03
2018-01-26T13:53:07.148Z,8.50
2018-01-26T13:55:33.375Z,9.40
2018-01-26T13:57:59.603Z,9.63
2018-01-26T14:00:25.839Z,9.43
2018-01-26T14:02:52.015Z,8.37
2018-01-26T14:05:18.240Z,8.00
2018-01-26T14:07:44.452Z,8.00
2018-01-26T14:10:11.405Z,6.73
2018-01-26T14:12:37.582Z,5.50
2018-01-26T14:15:03.773Z,5.63
2018-01-26T14:17:29.935Z,5.50
2018-01-26T14:19:56.105Z,6.87
2018-01-26T14:22:22.980Z,5.87
2018-01-26T14:24:49.173Z,6.57
2018-01-26T14:27:16.075Z,6.00
2018-01-26T14:29:42.324Z,5.70
2018-01-26T14:32:08.550Z,5.50
2018-01-26T14:34:34.774Z,5.17
2018-01-26T14:37:00.974Z,6.00
2018-01-26T14:39:27.145Z,5.67
2018-01-26T14:41:53.314Z,5.93
2018-01-26T14:44:19.516Z,6.13
2018-01-26T14:46:46.397Z,5.97
2018-01-26T14:49:12.598Z,6.90
2018-01-26T14:51:39.536Z,6.87
2018-01-26T14:54:06.474Z,5.83
2018-01-26T14:56:33.434Z,7.43
2018-01-26T14:58:59.646Z,6.30
2018-01-26T15:01:26.627Z,7.17
2018-01-26T15:03:52.857Z,6.60
2018-01-26T15:06:19.014Z,7.17
2018-01-26T15:08:45.230Z,7.20
2018-01-26T15:11:11.418Z,7.23
2018-01-26T15:13:38.406Z,7.87
2018-01-26T15:16:04.609Z,6.83
2018-01-26T15:18:30.835Z,6.80
2018-01-26T15:20:57.004Z,7.37
2018-01-26T15:23:23.199Z,5.83
2018-01-26T15:25:49.418Z,6.30
2018-01-26T15:28:15.699Z,6.77
2018-01-26T15:30:41.967Z,7.30
2018-01-26T15:33:08.206Z,7.00
2018-01-26T15:35:34.442Z,6.60
2018-01-26T15:38:00.578Z,6.80
2018-01-26T15:40:26.754Z,6.10
2018-01-26T15:42:53.741Z,6.23
2018-01-26T15:45:20.026Z,6.83
2018-01-26T15:47:47.003Z,6.60
2018-01-26T15:50:13.227Z,6.60
2018-01-26T15:52:39.424Z,7.70
2018-01-26T15:55:05.618Z,6.93
2018-01-26T15:57:31.806Z,7.60
2018-01-26T15:59:58.070Z,7.17
2018-01-26T16:02:24.261Z,6.53
2018-01-26T16:04:50.453Z,7.37
2018-01-26T16:07:17.441Z,6.73
2018-01-26T16:09:43.683Z,6.10
2018-01-26T16:12:09.981Z,6.63
2018-01-26T16:14:36.913Z,6.37
2018-01-26T16:17:03.162Z,6.00
2018-01-26T16:19:29.327Z,6.83
2018-01-26T16:21:55.496Z,6.20
2018-01-26T16:24:22.452Z,5.70
2018-01-26T16:26:49.407Z,5.90
2018-01-26T16:29:16.328Z,5.10
2018-01-26T16:31:42.467Z,5.30
2018-01-26T16:34:09.418Z,5.03
2018-01-26T16:36:36.393Z,5.40
2018-01-26T16:39:02.611Z,5.10
2018-01-26T16:41:28.842Z,5.43
2018-01-26T16:43:55.161Z,5.40
2018-01-26T16:46:22.127Z,5.83
2018-01-26T16:48:48.339Z,5.60
2018-01-26T16:51:14.530Z,6.20
2018-01-26T16:53:40.818Z,5.60
2018-01-26T16:56:07.032Z,6.50
2018-01-26T16:58:33.222Z,6.53
2018-01-26T17:00:59.491Z,6.83
2018-01-26T17:03:25.719Z,7.00
2018-01-26T17:05:51.970Z,6.87
2018-01-26T17:08:18.159Z,6.73
2018-01-26T17:10:45.054Z,7.00
2018-01-26T17:13:11.251Z,7.67
2018-01-26T17:15:37.525Z,7.90
2018-01-26T17:18:03.777Z,8.33
2018-01-26T17:20:30.804Z,8.20
2018-01-26T17:22:57.030Z,8.67
2018-01-26T17:25:23.218Z,7.80
2018-01-26T17:27:49.819Z,6.70
2018-01-26T17:30:16.021Z,6.37
2018-01-26T17:32:42.243Z,6.53
2018-01-26T17:35:08.430Z,5.90
2018-01-26T17:37:34.685Z,6.63
2018-01-26T17:40:00.873Z,7.30
2018-01-26T17:42:27.102Z,7.20
2018-01-26T17:44:53.290Z,6.47
2018-01-26T17:47:19.482Z,6.60
2018-01-26T17:49:45.628Z,6.70
2018-01-26T17:52:11.840Z,6.20
2018-01-26T17:54:38.056Z,7.00
2018-01-26T17:57:04.229Z,7.03
2018-01-26T17:59:30.495Z,6.27
2018-01-26T18:01:56.837Z,6.40
2018-01-26T18:04:23.200Z,6.20
2018-01-26T18:06:49.516Z,7.07
2018-01-26T18:09:15.739Z,8.40
2018-01-26T18:11:41.969Z,7.57
2018-01-26T18:14:08.232Z,7.90
2018-01-26T18:16:34.430Z,8.07
2018-01-26T18:19:00.599Z,8.70
2018-01-26T18:21:26.816Z,8.60
2018-01-26T18:23:52.961Z,9.93
2018-01-26T18:26:19.870Z,9.57
2018-01-26T18:28:46.048Z,10.83
2018-01-26T18:31:13.045Z,10.77
2018-01-26T18:33:39.192Z,11.77
2018-01-26T18:36:05.417Z,11.93
2018-01-26T18:38:31.649Z,11.40
2018-01-26T18:40:57.794Z,13.17
2018-01-26T18:43:24.794Z,13.07
2018-01-26T18:45:50.975Z,13.07
2018-01-26T18:48:17.180Z,13.17
2018-01-26T18:50:43.351Z,12.83
2018-01-26T18:53:09.555Z,13.87
2018-01-26T18:55:36.508Z,13.90
2018-01-26T18:58:03.464Z,13.70
2018-01-26T19:00:29.731Z,13.40
2018-01-26T19:02:55.958Z,12.73
2018-01-26T19:05:22.148Z,12.57
2018-01-26T19:07:48.365Z,13.70
2018-01-26T19:10:15.397Z,14.17
2018-01-26T19:12:42.331Z,13.20
2018-01-26T19:15:08.561Z,13.40
2018-01-26T19:17:35.587Z,13.20
2018-01-26T19:20:01.868Z,13.77
2018-01-26T19:22:28.110Z,12.63
2018-01-26T19:24:54.288Z,12.80
2018-01-26T19:27:20.443Z,12.20
2018-01-26T19:29:47.333Z,13.73
2018-01-26T19:32:14.372Z,13.30
2018-01-26T19:34:40.547Z,11.97
2018-01-26T19:37:07.515Z,12.23
2018-01-26T19:39:33.790Z,12.77
2018-01-26T19:42:00.012Z,12.43
2018-01-26T19:44:26.244Z,13.10
2018-01-26T19:46:52.571Z,11.50
2018-01-26T19:49:18.821Z,12.90
2018-01-26T19:51:45.017Z,12.43
2018-01-26T19:54:11.238Z,14.10
2018-01-26T19:56:37.432Z,12.97
2018-01-26T19:59:03.684Z,11.83
2018-01-26T20:01:29.945Z,10.40
2018-01-26T20:04:03.989Z,10.37
2018-01-26T20:09:48.336Z,10.27
2018-01-26T20:12:14.556Z,9.83
2018-01-26T20:14:40.738Z,11.17
2018-01-26T20:17:07.716Z,10.87
2018-01-26T20:19:33.884Z,11.00
2018-01-26T20:22:00.072Z,9.83
2018-01-26T20:24:26.292Z,11.07
2018-01-26T20:26:52.469Z,9.70
2018-01-26T20:29:18.648Z,10.23
2018-01-26T20:31:44.793Z,11.17
2018-01-26T20:34:11.000Z,10.73
2018-01-26T20:36:37.199Z,11.00
2018-01-26T20:39:04.078Z,11.20
2018-01-26T20:41:30.349Z,11.30
2018-01-26T20:43:56.585Z,11.40
2018-01-26T20:46:23.514Z,11.33
2018-01-26T20:48:49.713Z,12.10
2018-01-26T20:51:15.953Z,11.60
2018-01-26T20:53:42.180Z,11.90
2018-01-26T20:56:08.475Z,11.73
2018-01-26T20:58:35.402Z,11.30
2018-01-26T21:01:02.389Z,11.00
2018-01-26T21:03:28.578Z,12.73
2018-01-26T21:05:55.510Z,12.23
2018-01-26T21:08:22.422Z,13.57
2018-01-26T21:10:48.666Z,14.20
2018-01-26T21:13:14.846Z,13.00
2018-01-26T21:15:41.101Z,13.63
2018-01-26T21:18:07.395Z,14.50
2018-01-26T21:20:33.590Z,14.17
2018-01-26T21:23:00.570Z,14.83
2018-01-26T21:25:26.759Z,15.20
2018-01-26T21:27:53.678Z,15.90
2018-01-26T21:30:19.828Z,16.10
2018-01-26T21:32:46.086Z,14.93
2018-01-26T21:35:12.267Z,14.40
2018-01-26T21:37:38.458Z,15.80
2018-01-26T21:40:04.726Z,16.03
2018-01-26T21:42:30.944Z,17.23
2018-01-26T21:44:57.278Z,17.10
2018-01-26T21:47:23.523Z,16.87
2018-01-26T21:49:49.721Z,18.23
2018-01-26T21:52:17.647Z,16.30
2018-01-26T21:54:44.074Z,17.63
2018-01-26T21:57:11.222Z,17.37
2018-01-26T21:59:37.669Z,17.73
2018-01-26T22:02:04.161Z,17.77
2018-01-26T22:04:36.704Z,17.77
2018-01-26T22:07:09.209Z,16.30
2018-01-26T22:09:35.637Z,17.53
2018-01-26T22:12:02.024Z,16.73
2018-01-26T22:14:28.499Z,18.90
2018-01-26T22:16:54.844Z,17.60
2018-01-26T22:19:22.145Z,17.57
2018-01-26T22:22:04.272Z,16.87
2018-01-26T22:38:58.961Z,18.47
2018-01-26T22:41:25.135Z,19.20
2018-01-26T22:43:51.307Z,18.03
2018-01-26T22:46:17.563Z,19.00
2018-01-26T22:48:43.785Z,18.73
2018-01-26T22:51:09.963Z,19.50
2018-01-26T22:53:36.887Z,18.67
2018-01-26T22:56:03.056Z,18.87
2018-01-26T22:58:29.208Z,19.27
2018-01-26T23:00:55.434Z,19.70
2018-01-26T23:03:21.709Z,18.73
2018-01-26T23:05:47.906Z,19.67
2018-01-26T23:08:14.101Z,19.33
2018-01-26T23:10:40.280Z,18.70
2018-01-26T23:13:06.532Z,20.10
2018-01-26T23:15:33.506Z,20.53
2018-01-26T23:17:59.725Z,21.10
2018-01-26T23:20:25.935Z,22.60
2018-01-26T23:22:52.178Z,19.33
2018-01-26T23:25:18.378Z,21.20
2018-01-26T23:27:45.306Z,21.17
2018-01-26T23:30:11.496Z,19.30
2018-01-26T23:32:37.739Z,20.67
2018-01-26T23:35:03.974Z,20.93
2018-01-26T23:37:30.169Z,21.10
2018-01-26T23:39:56.333Z,18.20
2018-01-26T23:42:22.566Z,19.60
2018-01-26T23:44:48.809Z,19.73
2018-01-26T23:47:15.807Z,19.50
2018-01-26T23:49:42.059Z,19.60
2018-01-26T23:52:08.230Z,18.13
2018-01-26T23:54:35.100Z,19.47
2018-01-26T23:57:01.281Z,20.07
2018-01-26T23:59:27.452Z,19.93
